AYPY/POM METAR and TAF weather

Enter ICAO airport designator
Station Type Date Time Source
AYPY METAR 2020/07/13 14:00 UTC NOAA

AYPY 131400Z 15015KT 9999 SCT025 26/24 Q1010


Station Type Date Time Source
AYPY Decoded METAR 2020/07/13 14:00 UTC NOAA

Moresby, Papua New Guinea (AYPY) 09-26S 147-13E 49M
Jul 13, 2020 - 10:00 AM EDT / 2020.07.13 1400 UTC
Wind: from the SSE (150 degrees) at 17 MPH (15 KT):0
Visibility: greater than 7 mile(s):0
Sky conditions: partly cloudy
Temperature: 78 F (26 C)
Dew Point: 75 F (24 C)
Relative Humidity: 88%
Pressure (altimeter): 29.83 in. Hg (1010 hPa)
ob: AYPY 131400Z 15015KT 9999 SCT025 26/24 Q1010
cycle: 14

Station Type Date Time Source
AYPY TAF 2020/07/13 12:03 UTC NOAA

TAF TAF AYPY 131001Z 1312/1412 16015KT 9999 FEW016 BKN040

Example: see airport list